createdAt,value
2022-08-30T00:00:08.898Z,16.26
2022-08-30T00:02:36.865Z,16.25
2022-08-30T00:05:05.230Z,16.25
2022-08-30T00:07:34.661Z,16.25
2022-08-30T00:10:02.363Z,16.24
2022-08-30T00:12:31.710Z,16.24
2022-08-30T00:14:59.502Z,16.24
2022-08-30T00:17:27.149Z,16.22
2022-08-30T00:19:55.983Z,16.20
2022-08-30T00:22:23.629Z,16.15
2022-08-30T00:24:52.626Z,16.12
2022-08-30T00:27:20.334Z,16.10
2022-08-30T00:29:47.967Z,16.10
2022-08-30T00:32:16.273Z,16.06
2022-08-30T00:34:43.904Z,16.09
2022-08-30T00:37:11.566Z,16.03
2022-08-30T00:39:39.207Z,15.98
2022-08-30T00:42:08.816Z,15.95
2022-08-30T00:44:36.728Z,15.97
2022-08-30T00:47:04.534Z,16.00
2022-08-30T00:49:32.572Z,16.00
2022-08-30T00:52:00.521Z,15.97
2022-08-30T00:54:28.716Z,15.95
2022-08-30T00:56:56.599Z,15.95
2022-08-30T00:59:27.304Z,15.95
2022-08-30T01:01:55.036Z,15.89
2022-08-30T01:04:23.431Z,15.80
2022-08-30T01:06:51.226Z,15.75
2022-08-30T01:09:18.924Z,15.72
2022-08-30T01:11:47.267Z,15.67
2022-08-30T01:14:17.170Z,15.68
2022-08-30T01:16:47.232Z,15.69
2022-08-30T01:19:29.252Z,15.69
2022-08-30T01:22:01.900Z,15.70
2022-08-30T01:24:31.420Z,15.68
2022-08-30T01:26:59.493Z,15.64
2022-08-30T01:29:27.546Z,15.61
2022-08-30T01:31:55.265Z,15.62
2022-08-30T01:34:23.155Z,15.60
2022-08-30T01:36:50.824Z,15.55
2022-08-30T01:39:19.083Z,15.50
2022-08-30T01:41:48.337Z,15.49
2022-08-30T01:44:16.242Z,15.48
2022-08-30T01:46:46.990Z,15.43
2022-08-30T01:49:16.906Z,15.42
2022-08-30T01:51:46.911Z,15.43
2022-08-30T01:54:14.689Z,15.42
2022-08-30T01:56:42.357Z,15.34
2022-08-30T01:59:11.428Z,15.34
2022-08-30T02:01:40.068Z,15.28
2022-08-30T02:04:09.196Z,15.19
2022-08-30T02:06:39.245Z,15.13
2022-08-30T02:09:06.946Z,15.14
2022-08-30T02:11:35.140Z,15.11
2022-08-30T02:14:02.804Z,15.10
2022-08-30T02:16:31.958Z,15.07
2022-08-30T02:18:59.843Z,15.07
2022-08-30T02:21:28.129Z,15.08
2022-08-30T02:23:56.111Z,15.06
2022-08-30T02:26:24.178Z,15.00
2022-08-30T02:28:52.189Z,14.98
2022-08-30T02:31:20.930Z,15.05
2022-08-30T02:33:51.295Z,15.04
2022-08-30T02:36:19.113Z,15.01
2022-08-30T02:38:47.207Z,15.01
2022-08-30T02:41:15.166Z,15.01
2022-08-30T02:43:43.074Z,15.01
2022-08-30T02:46:10.737Z,15.00
2022-08-30T02:48:38.470Z,15.00
2022-08-30T02:51:11.626Z,14.95
2022-08-30T02:53:40.074Z,14.92
2022-08-30T02:56:08.122Z,14.92
2022-08-30T02:58:35.889Z,14.93
2022-08-30T03:01:03.945Z,14.92
2022-08-30T03:03:31.683Z,14.90
2022-08-30T03:05:59.332Z,14.89
2022-08-30T03:08:28.305Z,14.91
2022-08-30T03:10:56.890Z,14.90
2022-08-30T03:13:25.022Z,14.86
2022-08-30T03:15:52.826Z,14.85
2022-08-30T03:18:21.906Z,14.84
2022-08-30T03:20:54.364Z,14.81
2022-08-30T03:23:23.103Z,14.79
2022-08-30T03:25:53.446Z,14.77
2022-08-30T03:28:21.277Z,14.75
2022-08-30T03:30:48.933Z,14.77
2022-08-30T03:33:18.471Z,14.76
2022-08-30T03:35:46.841Z,14.77
2022-08-30T03:38:14.495Z,14.78
2022-08-30T03:40:43.574Z,14.80
2022-08-30T03:43:13.084Z,14.83
2022-08-30T03:45:41.207Z,14.84
2022-08-30T03:48:09.011Z,14.84
2022-08-30T03:50:36.961Z,14.85
2022-08-30T03:53:04.731Z,14.88
2022-08-30T03:55:32.425Z,14.90
2022-08-30T03:58:00.112Z,14.94
2022-08-30T04:00:29.414Z,14.96
2022-08-30T04:02:57.108Z,14.99
2022-08-30T04:05:24.806Z,15.02
2022-08-30T04:07:52.923Z,15.01
2022-08-30T04:10:21.670Z,14.97
2022-08-30T04:12:49.934Z,15.00
2022-08-30T04:15:18.573Z,15.04
2022-08-30T04:17:48.230Z,15.07
2022-08-30T04:20:16.627Z,15.10
2022-08-30T04:22:44.392Z,15.14
2022-08-30T04:25:15.530Z,15.15
2022-08-30T04:27:43.495Z,15.15
2022-08-30T04:30:12.532Z,15.17
2022-08-30T04:32:41.294Z,15.23
2022-08-30T04:35:10.924Z,15.28
2022-08-30T04:37:38.938Z,15.32
2022-08-30T04:40:07.998Z,15.37
2022-08-30T04:42:36.761Z,15.42
2022-08-30T04:45:06.907Z,15.42
2022-08-30T04:47:34.774Z,15.42
2022-08-30T04:50:03.597Z,15.41
2022-08-30T04:52:32.734Z,15.43
2022-08-30T04:55:00.874Z,15.42
2022-08-30T04:57:29.077Z,15.47
2022-08-30T04:59:57.142Z,15.51
2022-08-30T05:02:25.111Z,15.53
2022-08-30T05:05:10.611Z,15.54
2022-08-30T05:07:43.420Z,15.52
2022-08-30T05:10:11.729Z,15.49
2022-08-30T05:12:39.830Z,15.52
2022-08-30T05:15:08.569Z,15.52
2022-08-30T05:17:38.104Z,15.51
2022-08-30T05:20:06.917Z,15.50
2022-08-30T05:22:37.166Z,15.55
2022-08-30T05:25:07.275Z,15.61
2022-08-30T05:27:37.543Z,15.65
2022-08-30T05:30:06.429Z,15.66
2022-08-30T05:32:34.147Z,15.68
2022-08-30T05:35:01.850Z,15.73
2022-08-30T05:37:29.529Z,15.74
2022-08-30T05:39:57.584Z,15.79
2022-08-30T05:42:26.686Z,15.80
2022-08-30T05:44:55.615Z,15.74
2022-08-30T05:47:23.415Z,15.77
2022-08-30T05:49:51.593Z,15.83
2022-08-30T05:52:19.617Z,15.91
2022-08-30T05:54:47.683Z,15.95
2022-08-30T05:57:15.387Z,16.03
2022-08-30T05:59:44.625Z,16.08
2022-08-30T06:02:12.385Z,16.16
2022-08-30T06:04:40.123Z,16.21
2022-08-30T06:07:12.940Z,16.23
2022-08-30T06:09:43.171Z,16.28
2022-08-30T06:12:11.075Z,16.40
2022-08-30T06:14:39.424Z,16.53
2022-08-30T06:17:08.412Z,16.59
2022-08-30T06:19:36.058Z,16.73
2022-08-30T06:22:04.354Z,16.83
2022-08-30T06:24:53.999Z,16.94
2022-08-30T06:27:19.567Z,17.04
2022-08-30T06:29:47.727Z,17.19
2022-08-30T06:32:16.766Z,17.35
2022-08-30T06:34:44.474Z,17.49
2022-08-30T06:37:12.147Z,17.65
2022-08-30T06:39:58.066Z,17.82
2022-08-30T06:42:31.664Z,17.95
2022-08-30T06:44:59.463Z,18.12
2022-08-30T06:47:29.154Z,18.28
2022-08-30T06:49:57.142Z,18.33
2022-08-30T06:52:25.238Z,18.48
2022-08-30T06:54:53.683Z,18.64
2022-08-30T06:57:21.426Z,18.80
2022-08-30T06:59:49.195Z,18.96
2022-08-30T07:02:17.041Z,19.13
2022-08-30T07:04:46.150Z,19.28
2022-08-30T07:07:13.832Z,19.46
2022-08-30T07:09:43.345Z,19.55
2022-08-30T07:12:12.036Z,19.67
2022-08-30T07:14:40.825Z,19.89
2022-08-30T07:17:23.396Z,20.10
2022-08-30T07:19:52.469Z,20.27
2022-08-30T07:22:20.229Z,20.44
2022-08-30T07:24:48.273Z,20.54
2022-08-30T07:27:16.294Z,20.76
2022-08-30T07:29:44.079Z,20.99
2022-08-30T07:32:11.811Z,21.18
2022-08-30T07:34:39.657Z,21.22
2022-08-30T07:37:08.753Z,21.21
2022-08-30T07:39:41.727Z,21.36
2022-08-30T07:42:13.566Z,21.63
2022-08-30T07:44:41.254Z,21.85
2022-08-30T07:47:08.996Z,22.09
2022-08-30T07:49:37.826Z,22.23
2022-08-30T07:52:05.754Z,22.25
2022-08-30T07:54:34.968Z,22.25
2022-08-30T07:57:02.716Z,22.34
2022-08-30T07:59:33.015Z,22.47
2022-08-30T08:02:03.441Z,22.73
2022-08-30T08:04:31.661Z,22.98
2022-08-30T08:06:59.432Z,23.15
2022-08-30T08:09:27.281Z,23.34
2022-08-30T08:11:56.459Z,23.39
2022-08-30T08:14:24.294Z,23.26
2022-08-30T08:16:52.249Z,23.13
2022-08-30T08:19:19.979Z,23.29
2022-08-30T08:21:50.478Z,23.45
2022-08-30T08:24:27.963Z,23.59
2022-08-30T08:26:57.710Z,23.43
2022-08-30T08:29:26.953Z,23.34
2022-08-30T08:31:54.880Z,23.27
2022-08-30T08:34:23.605Z,23.67
2022-08-30T08:36:51.717Z,23.51
2022-08-30T08:39:19.522Z,23.65
2022-08-30T08:41:53.729Z,24.10
2022-08-30T08:44:34.289Z,24.41
2022-08-30T08:47:08.119Z,24.59
2022-08-30T08:49:37.293Z,24.71
2022-08-30T08:52:23.871Z,24.85
2022-08-30T08:54:56.272Z,24.99
2022-08-30T08:57:27.246Z,25.08
2022-08-30T08:59:56.266Z,25.14
2022-08-30T09:02:26.658Z,25.19
2022-08-30T09:04:56.586Z,25.10
2022-08-30T09:07:26.529Z,25.31
2022-08-30T09:09:54.499Z,25.34
2022-08-30T09:12:22.174Z,25.55
2022-08-30T09:14:54.412Z,25.47
2022-08-30T09:17:24.923Z,25.58
2022-08-30T09:20:02.505Z,25.78
2022-08-30T09:22:34.863Z,26.08
2022-08-30T09:25:05.643Z,26.19
2022-08-30T09:27:36.215Z,26.27
2022-08-30T09:30:14.205Z,26.11
2022-08-30T09:32:45.884Z,26.29
2022-08-30T09:35:19.140Z,26.13
2022-08-30T09:37:50.054Z,26.09
2022-08-30T09:40:23.708Z,26.21
2022-08-30T09:43:04.213Z,26.35
2022-08-30T09:45:36.081Z,26.53
2022-08-30T09:48:21.797Z,26.63
2022-08-30T09:50:52.884Z,26.69
2022-08-30T09:53:26.773Z,26.93
2022-08-30T09:55:57.178Z,27.08
2022-08-30T09:58:35.185Z,27.14
2022-08-30T10:01:12.004Z,27.07
2022-08-30T10:03:46.236Z,26.99
2022-08-30T10:06:19.646Z,27.10
2022-08-30T10:08:57.650Z,26.59
2022-08-30T10:11:29.491Z,26.89
2022-08-30T10:14:00.779Z,27.17
2022-08-30T10:16:35.779Z,27.42
2022-08-30T10:19:14.760Z,27.23
2022-08-30T10:21:45.303Z,27.16
2022-08-30T10:24:21.011Z,26.99
2022-08-30T10:26:51.929Z,27.12
2022-08-30T10:29:24.106Z,27.05
2022-08-30T10:31:55.997Z,27.18
2022-08-30T10:34:25.561Z,27.42
2022-08-30T10:36:58.370Z,27.65
2022-08-30T10:39:30.987Z,27.45
2022-08-30T10:42:04.114Z,27.48
2022-08-30T10:44:36.061Z,27.54
2022-08-30T10:47:10.278Z,27.60
2022-08-30T10:49:43.244Z,27.80
2022-08-30T10:52:22.586Z,27.68
2022-08-30T10:54:52.812Z,27.93
2022-08-30T10:57:20.962Z,28.02
2022-08-30T10:59:53.316Z,28.09
2022-08-30T11:02:47.643Z,28.18
2022-08-30T11:05:29.871Z,28.34
2022-08-30T11:08:05.164Z,28.04
2022-08-30T11:10:47.770Z,27.80
2022-08-30T11:13:21.971Z,27.97
2022-08-30T11:16:02.501Z,28.11
2022-08-30T11:18:31.338Z,28.13
2022-08-30T11:21:23.172Z,28.06
2022-08-30T11:24:11.699Z,28.43
2022-08-30T11:27:06.759Z,28.20
2022-08-30T11:29:43.213Z,28.41
2022-08-30T11:32:58.637Z,28.57
2022-08-30T11:35:46.018Z,28.71
2022-08-30T11:38:22.663Z,28.91
2022-08-30T11:40:53.281Z,28.42
2022-08-30T11:43:53.177Z,28.59
2022-08-30T11:46:35.212Z,28.75
2022-08-30T11:49:08.123Z,28.66
2022-08-30T11:52:27.612Z,28.60
2022-08-30T11:55:08.234Z,28.75
2022-08-30T11:57:50.714Z,28.71
2022-08-30T12:00:30.349Z,28.52
2022-08-30T12:03:01.279Z,28.83
2022-08-30T12:05:57.407Z,28.92
2022-08-30T12:08:45.437Z,29.25
2022-08-30T12:12:04.023Z,29.09
2022-08-30T12:14:52.033Z,28.90
2022-08-30T12:17:43.252Z,28.90
2022-08-30T12:20:26.009Z,29.31
2022-08-30T12:22:55.511Z,29.19
2022-08-30T12:25:32.689Z,29.24
2022-08-30T12:28:14.962Z,29.51
2022-08-30T12:30:46.495Z,29.64
2022-08-30T12:33:16.251Z,29.32
2022-08-30T12:35:45.438Z,29.30
2022-08-30T12:38:18.494Z,29.15
2022-08-30T12:40:51.805Z,29.27
2022-08-30T12:43:27.817Z,29.32
2022-08-30T12:46:11.566Z,29.02
2022-08-30T12:48:41.811Z,29.33
2022-08-30T12:51:10.990Z,29.41
2022-08-30T12:53:42.020Z,29.48
2022-08-30T12:56:11.896Z,29.31
2022-08-30T12:58:43.854Z,29.28
2022-08-30T13:01:19.662Z,29.10
2022-08-30T13:04:02.256Z,29.28
2022-08-30T13:06:42.150Z,29.22
2022-08-30T13:09:10.444Z,29.09
2022-08-30T13:11:38.319Z,29.02
2022-08-30T13:14:31.465Z,28.52
2022-08-30T13:17:24.671Z,28.64
2022-08-30T13:20:05.314Z,28.89
2022-08-30T13:22:35.115Z,28.33
2022-08-30T13:25:04.684Z,28.40
2022-08-30T13:27:36.784Z,28.73
2022-08-30T13:30:07.933Z,28.68
2022-08-30T13:32:43.074Z,28.56
2022-08-30T13:35:11.889Z,28.26
2022-08-30T13:37:47.434Z,28.27
2022-08-30T13:40:19.374Z,28.38
2022-08-30T13:42:47.280Z,28.46
2022-08-30T13:48:07.206Z,28.36
2022-08-30T13:50:34.915Z,28.46
2022-08-30T13:53:02.697Z,28.27
2022-08-30T13:55:30.435Z,28.53
2022-08-30T13:57:58.419Z,28.64
2022-08-30T14:00:27.192Z,28.51
2022-08-30T14:02:57.486Z,28.61
2022-08-30T14:11:11.306Z,28.47
2022-08-30T14:14:14.152Z,28.15
2022-08-30T14:16:27.556Z,28.11
2022-08-30T14:18:55.507Z,27.93
2022-08-30T14:21:25.366Z,27.93
2022-08-30T14:23:53.137Z,27.96
2022-08-30T14:26:22.786Z,28.06
2022-08-30T14:28:51.913Z,28.16
2022-08-30T14:31:20.286Z,27.81
2022-08-30T14:33:48.264Z,27.75
2022-08-30T14:36:16.868Z,27.77
2022-08-30T14:38:46.008Z,27.89
2022-08-30T14:41:13.661Z,27.96
2022-08-30T14:43:41.502Z,27.95
2022-08-30T14:46:10.153Z,27.95
2022-08-30T14:48:39.102Z,28.00
2022-08-30T14:51:13.038Z,28.13
2022-08-30T14:53:41.335Z,28.21
2022-08-30T14:56:12.549Z,28.12
2022-08-30T14:58:40.207Z,28.06
2022-08-30T15:01:09.706Z,27.98
2022-08-30T15:03:38.068Z,27.93
2022-08-30T15:06:06.210Z,27.80
2022-08-30T15:08:34.586Z,27.77
2022-08-30T15:11:02.455Z,27.54
2022-08-30T15:13:31.438Z,27.51
2022-08-30T15:15:59.160Z,27.47
2022-08-30T15:18:26.866Z,27.41
2022-08-30T15:20:54.631Z,27.36
2022-08-30T15:23:22.860Z,27.23
2022-08-30T15:25:52.631Z,27.14
2022-08-30T15:28:20.261Z,27.11
2022-08-30T15:30:50.146Z,27.06
2022-08-30T15:33:17.968Z,27.02
2022-08-30T15:35:45.621Z,26.82
2022-08-30T15:38:13.326Z,26.83
2022-08-30T15:40:41.169Z,26.67
2022-08-30T15:43:08.842Z,26.64
2022-08-30T15:45:36.758Z,26.55
2022-08-30T15:48:05.928Z,26.47
2022-08-30T15:50:33.665Z,26.45
2022-08-30T15:53:02.250Z,26.38
2022-08-30T15:55:29.974Z,26.37
2022-08-30T15:57:57.602Z,26.15
2022-08-30T16:00:25.314Z,25.82
2022-08-30T16:02:53.291Z,25.84
2022-08-30T16:05:23.680Z,25.90
2022-08-30T16:07:52.334Z,25.83
2022-08-30T16:10:20.433Z,25.88
2022-08-30T16:12:48.054Z,25.93
2022-08-30T16:15:15.949Z,25.95
2022-08-30T16:17:43.720Z,25.90
2022-08-30T16:20:12.049Z,25.90
2022-08-30T16:22:45.864Z,25.88
2022-08-30T16:25:15.367Z,25.83
2022-08-30T16:27:44.058Z,25.82
2022-08-30T16:30:12.978Z,25.75
2022-08-30T16:32:41.299Z,25.74
2022-08-30T16:35:10.482Z,25.73
2022-08-30T16:37:39.276Z,25.62
2022-08-30T16:40:11.385Z,25.57
2022-08-30T16:42:39.269Z,25.52
2022-08-30T16:45:10.788Z,25.41
2022-08-30T16:47:38.565Z,25.28
2022-08-30T16:50:07.138Z,25.17
2022-08-30T16:52:34.897Z,25.13
2022-08-30T16:55:02.609Z,25.00
2022-08-30T16:57:32.882Z,24.96
2022-08-30T17:00:00.539Z,24.94
2022-08-30T17:02:28.206Z,24.94
2022-08-30T17:04:55.901Z,24.90
2022-08-30T17:07:23.539Z,24.89
2022-08-30T17:09:51.229Z,24.84
2022-08-30T17:12:19.067Z,24.73
2022-08-30T17:14:48.073Z,24.62
2022-08-30T17:17:15.755Z,24.59
2022-08-30T17:19:44.074Z,24.55
2022-08-30T17:22:12.869Z,24.47
2022-08-30T17:24:40.791Z,24.40
2022-08-30T17:27:08.619Z,24.34
2022-08-30T17:29:36.261Z,24.27
2022-08-30T17:32:07.734Z,24.21
2022-08-30T17:34:36.839Z,24.13
2022-08-30T17:37:04.931Z,24.08
2022-08-30T17:39:32.628Z,23.99
2022-08-30T17:42:00.904Z,23.95
2022-08-30T17:44:29.647Z,23.91
2022-08-30T17:46:58.404Z,23.84
2022-08-30T17:49:29.586Z,23.80
2022-08-30T17:51:58.012Z,23.64
2022-08-30T17:54:26.636Z,23.56
2022-08-30T17:56:55.072Z,23.41
2022-08-30T17:59:25.343Z,23.20
2022-08-30T18:01:53.964Z,23.09
2022-08-30T18:04:24.687Z,23.03
2022-08-30T18:06:54.320Z,22.96
2022-08-30T18:09:22.407Z,22.95
2022-08-30T18:11:50.341Z,22.90
2022-08-30T18:14:18.816Z,22.87
2022-08-30T18:16:52.479Z,22.87
2022-08-30T18:19:22.668Z,22.83
2022-08-30T18:21:50.275Z,22.82
2022-08-30T18:24:19.850Z,22.79
2022-08-30T18:26:47.605Z,22.81
2022-08-30T18:29:22.484Z,22.79
2022-08-30T18:31:57.286Z,22.79
2022-08-30T18:34:24.937Z,22.67
2022-08-30T18:36:52.732Z,22.53
2022-08-30T18:39:22.460Z,22.41
2022-08-30T18:41:50.801Z,22.21
2022-08-30T18:44:28.390Z,22.13
2022-08-30T18:46:57.707Z,22.07
2022-08-30T18:49:32.783Z,21.90
2022-08-30T18:52:00.874Z,21.79
2022-08-30T18:54:31.506Z,21.73
2022-08-30T18:56:59.818Z,21.56
2022-08-30T18:59:35.490Z,21.51
2022-08-30T19:02:05.225Z,21.54
2022-08-30T19:04:35.459Z,21.50
2022-08-30T19:07:04.665Z,21.47
2022-08-30T19:09:33.773Z,21.41
2022-08-30T19:12:01.583Z,21.34
2022-08-30T19:14:29.298Z,21.30
2022-08-30T19:16:57.329Z,21.15
2022-08-30T19:19:25.151Z,21.04
2022-08-30T19:21:52.764Z,20.95
2022-08-30T19:24:20.433Z,20.84
2022-08-30T19:26:50.369Z,20.86
2022-08-30T19:29:17.977Z,20.86
2022-08-30T19:31:45.755Z,20.87
2022-08-30T19:34:13.576Z,20.86
2022-08-30T19:36:41.472Z,20.82
2022-08-30T19:39:09.942Z,20.69
2022-08-30T19:41:38.156Z,20.72
2022-08-30T19:44:07.663Z,20.77
2022-08-30T19:46:37.027Z,20.81
2022-08-30T19:49:07.044Z,20.75
2022-08-30T19:51:34.655Z,20.76
2022-08-30T19:54:03.187Z,20.71
2022-08-30T19:56:30.865Z,20.51
2022-08-30T19:58:58.530Z,20.36
2022-08-30T20:01:33.311Z,20.28
2022-08-30T20:04:02.601Z,20.19
2022-08-30T20:06:30.920Z,20.00
2022-08-30T20:09:00.356Z,19.99
2022-08-30T20:11:28.722Z,20.06
2022-08-30T20:13:56.822Z,20.11
2022-08-30T20:16:33.119Z,20.06
2022-08-30T20:19:08.138Z,19.76
2022-08-30T20:21:36.356Z,19.60
2022-08-30T20:24:04.988Z,19.69
2022-08-30T20:26:37.520Z,19.78
2022-08-30T20:29:05.533Z,19.86
2022-08-30T20:31:33.589Z,19.82
2022-08-30T20:34:01.790Z,19.76
2022-08-30T20:36:30.801Z,19.64
2022-08-30T20:38:58.818Z,19.23
2022-08-30T20:41:28.951Z,18.94
2022-08-30T20:43:58.268Z,18.80
2022-08-30T20:46:27.716Z,18.90
2022-08-30T20:49:01.434Z,19.03
2022-08-30T20:51:30.594Z,19.12
2022-08-30T20:53:58.487Z,19.03
2022-08-30T20:56:27.690Z,19.06
2022-08-30T20:58:55.380Z,19.13
2022-08-30T21:01:24.198Z,19.11
2022-08-30T21:03:51.963Z,19.07
2022-08-30T21:06:21.670Z,19.05
2022-08-30T21:08:50.678Z,19.08
2022-08-30T21:11:18.350Z,19.08
2022-08-30T21:13:48.268Z,19.10
2022-08-30T21:16:17.729Z,19.12
2022-08-30T21:18:49.697Z,19.15
2022-08-30T21:21:21.290Z,19.17
2022-08-30T21:23:50.541Z,19.17
2022-08-30T21:26:19.192Z,19.16
2022-08-30T21:28:47.757Z,19.13
2022-08-30T21:31:17.972Z,19.12
2022-08-30T21:33:45.750Z,19.06
2022-08-30T21:36:27.359Z,19.01
2022-08-30T21:39:00.600Z,19.02
2022-08-30T21:41:29.119Z,19.02
2022-08-30T21:43:57.746Z,19.03
2022-08-30T21:46:26.494Z,18.91
2022-08-30T21:48:54.366Z,18.90
2022-08-30T21:51:22.486Z,18.88
2022-08-30T21:53:50.121Z,18.88
2022-08-30T21:56:21.996Z,18.88
2022-08-30T21:58:50.604Z,18.84
2022-08-30T22:01:21.196Z,18.84
2022-08-30T22:03:48.939Z,18.82
2022-08-30T22:06:17.019Z,18.81
2022-08-30T22:08:46.931Z,18.81
2022-08-30T22:11:21.775Z,18.79
2022-08-30T22:13:50.986Z,18.77
2022-08-30T22:16:21.421Z,18.75
2022-08-30T22:18:49.132Z,18.70
2022-08-30T22:21:19.749Z,18.70
2022-08-30T22:23:47.428Z,18.68
2022-08-30T22:26:16.252Z,18.69
2022-08-30T22:28:45.388Z,18.67
2022-08-30T22:31:14.909Z,18.63
2022-08-30T22:33:43.071Z,18.52
2022-08-30T22:36:14.544Z,18.55
2022-08-30T22:38:42.465Z,18.52
2022-08-30T22:41:11.489Z,18.52
2022-08-30T22:43:39.346Z,18.58
2022-08-30T22:46:08.895Z,18.61
2022-08-30T22:48:36.954Z,18.62
2022-08-30T22:51:05.291Z,18.65
2022-08-30T22:53:33.131Z,18.62
2022-08-30T22:56:01.869Z,18.57
2022-08-30T22:58:30.716Z,18.55
2022-08-30T23:00:58.476Z,18.46
2022-08-30T23:03:29.754Z,18.33
2022-08-30T23:05:57.431Z,18.22
2022-08-30T23:08:25.079Z,18.13
2022-08-30T23:10:52.801Z,17.93
2022-08-30T23:13:20.587Z,17.96
2022-08-30T23:15:48.232Z,18.04
2022-08-30T23:18:15.901Z,18.16
2022-08-30T23:20:45.234Z,18.19
2022-08-30T23:23:30.395Z,18.25
2022-08-30T23:26:18.270Z,18.32
2022-08-30T23:29:03.666Z,18.37
2022-08-30T23:31:49.033Z,18.40
2022-08-30T23:34:34.223Z,18.43
2022-08-30T23:37:20.904Z,18.44
2022-08-30T23:40:06.463Z,18.38
2022-08-30T23:42:51.626Z,18.39
2022-08-30T23:45:37.086Z,18.38
2022-08-30T23:48:22.033Z,18.38
2022-08-30T23:51:07.423Z,18.40
2022-08-30T23:53:54.115Z,18.38
2022-08-30T23:56:39.631Z,18.36
2022-08-30T23:59:25.092Z,18.37
